sensor_id;sensor_type;location;lat;lon;timestamp;P1;durP1;ratioP1;P2;durP2;ratioP2
11486;SDS011;10510;47.942;9.442;2022-10-31T00:00:48;17.58;;;7.68;;
11486;SDS011;10510;47.942;9.442;2022-10-31T00:02:49;13.80;;;7.65;;
11486;SDS011;10510;47.942;9.442;2022-10-31T00:04:49;11.38;;;7.55;;
11486;SDS011;10510;47.942;9.442;2022-10-31T00:06:49;18.00;;;7.57;;
11486;SDS011;10510;47.942;9.442;2022-10-31T00:08:54;14.63;;;7.50;;
11486;SDS011;10510;47.942;9.442;2022-10-31T00:10:57;18.10;;;8.00;;
11486;SDS011;10510;47.942;9.442;2022-10-31T00:12:57;9.95;;;6.93;;
11486;SDS011;10510;47.942;9.442;2022-10-31T00:14:57;10.68;;;6.55;;
11486;SDS011;10510;47.942;9.442;2022-10-31T00:16:57;10.73;;;6.43;;
11486;SDS011;10510;47.942;9.442;2022-10-31T00:18:59;11.15;;;6.50;;
11486;SDS011;10510;47.942;9.442;2022-10-31T00:21:01;9.18;;;5.97;;
11486;SDS011;10510;47.942;9.442;2022-10-31T00:23:03;12.52;;;6.28;;
11486;SDS011;10510;47.942;9.442;2022-10-31T00:25:04;11.60;;;6.30;;
11486;SDS011;10510;47.942;9.442;2022-10-31T00:27:04;11.75;;;6.50;;
11486;SDS011;10510;47.942;9.442;2022-10-31T00:29:05;10.02;;;6.50;;
11486;SDS011;10510;47.942;9.442;2022-10-31T00:31:06;14.13;;;7.35;;
11486;SDS011;10510;47.942;9.442;2022-10-31T00:33:08;13.18;;;6.13;;
11486;SDS011;10510;47.942;9.442;2022-10-31T00:35:08;19.70;;;7.57;;
11486;SDS011;10510;47.942;9.442;2022-10-31T00:37:09;21.08;;;7.47;;
11486;SDS011;10510;47.942;9.442;2022-10-31T00:39:09;16.88;;;7.05;;
11486;SDS011;10510;47.942;9.442;2022-10-31T00:41:10;32.15;;;7.65;;
11486;SDS011;10510;47.942;9.442;2022-10-31T00:43:11;20.75;;;7.18;;
11486;SDS011;10510;47.942;9.442;2022-10-31T00:45:11;17.25;;;7.60;;
11486;SDS011;10510;47.942;9.442;2022-10-31T00:47:11;17.13;;;6.60;;
11486;SDS011;10510;47.942;9.442;2022-10-31T00:49:11;17.13;;;6.20;;
11486;SDS011;10510;47.942;9.442;2022-10-31T00:51:12;16.98;;;6.60;;
11486;SDS011;10510;47.942;9.442;2022-10-31T00:53:12;10.73;;;6.30;;
11486;SDS011;10510;47.942;9.442;2022-10-31T00:55:13;8.70;;;5.38;;
11486;SDS011;10510;47.942;9.442;2022-10-31T00:57:13;12.38;;;6.20;;
11486;SDS011;10510;47.942;9.442;2022-10-31T00:59:13;9.10;;;4.93;;
11486;SDS011;10510;47.942;9.442;2022-10-31T01:01:13;8.43;;;5.70;;
11486;SDS011;10510;47.942;9.442;2022-10-31T01:03:14;9.27;;;5.60;;
11486;SDS011;10510;47.942;9.442;2022-10-31T01:05:14;9.32;;;6.07;;
11486;SDS011;10510;47.942;9.442;2022-10-31T01:07:14;8.07;;;5.60;;
11486;SDS011;10510;47.942;9.442;2022-10-31T01:09:15;10.30;;;5.93;;
11486;SDS011;10510;47.942;9.442;2022-10-31T01:11:16;9.48;;;5.07;;
11486;SDS011;10510;47.942;9.442;2022-10-31T01:13:18;8.60;;;4.93;;
11486;SDS011;10510;47.942;9.442;2022-10-31T01:15:19;13.38;;;5.68;;
11486;SDS011;10510;47.942;9.442;2022-10-31T01:17:21;8.73;;;5.25;;
11486;SDS011;10510;47.942;9.442;2022-10-31T01:19:22;7.97;;;5.38;;
11486;SDS011;10510;47.942;9.442;2022-10-31T01:21:23;9.10;;;5.15;;
11486;SDS011;10510;47.942;9.442;2022-10-31T01:23:25;9.45;;;4.78;;
11486;SDS011;10510;47.942;9.442;2022-10-31T01:25:27;9.00;;;5.28;;
11486;SDS011;10510;47.942;9.442;2022-10-31T01:27:27;7.15;;;4.70;;
11486;SDS011;10510;47.942;9.442;2022-10-31T01:29:27;8.85;;;4.70;;
11486;SDS011;10510;47.942;9.442;2022-10-31T01:31:29;8.50;;;5.43;;
11486;SDS011;10510;47.942;9.442;2022-10-31T01:33:31;9.85;;;4.63;;
11486;SDS011;10510;47.942;9.442;2022-10-31T01:35:31;6.47;;;4.60;;
11486;SDS011;10510;47.942;9.442;2022-10-31T01:37:31;9.38;;;5.93;;
11486;SDS011;10510;47.942;9.442;2022-10-31T01:39:32;11.00;;;5.70;;
11486;SDS011;10510;47.942;9.442;2022-10-31T01:41:33;8.85;;;4.75;;
11486;SDS011;10510;47.942;9.442;2022-10-31T01:43:46;6.80;;;4.00;;
11486;SDS011;10510;47.942;9.442;2022-10-31T01:45:50;5.47;;;4.00;;
11486;SDS011;10510;47.942;9.442;2022-10-31T01:47:53;6.30;;;4.13;;
11486;SDS011;10510;47.942;9.442;2022-10-31T01:49:54;8.65;;;4.82;;
11486;SDS011;10510;47.942;9.442;2022-10-31T01:52:01;8.43;;;4.80;;
11486;SDS011;10510;47.942;9.442;2022-10-31T01:54:21;8.13;;;5.30;;
11486;SDS011;10510;47.942;9.442;2022-10-31T01:56:25;8.20;;;5.35;;
11486;SDS011;10510;47.942;9.442;2022-10-31T01:58:28;9.20;;;5.35;;
11486;SDS011;10510;47.942;9.442;2022-10-31T02:00:31;7.82;;;5.53;;
11486;SDS011;10510;47.942;9.442;2022-10-31T02:02:31;6.43;;;4.90;;
11486;SDS011;10510;47.942;9.442;2022-10-31T02:04:31;6.32;;;4.18;;
11486;SDS011;10510;47.942;9.442;2022-10-31T02:06:40;8.18;;;5.30;;
11486;SDS011;10510;47.942;9.442;2022-10-31T02:08:44;9.13;;;5.20;;
11486;SDS011;10510;47.942;9.442;2022-10-31T02:10:45;7.50;;;5.32;;
11486;SDS011;10510;47.942;9.442;2022-10-31T02:12:45;9.15;;;4.97;;
11486;SDS011;10510;47.942;9.442;2022-10-31T02:14:47;10.75;;;4.63;;
11486;SDS011;10510;47.942;9.442;2022-10-31T02:16:47;7.43;;;4.60;;
11486;SDS011;10510;47.942;9.442;2022-10-31T02:18:47;7.63;;;4.40;;
11486;SDS011;10510;47.942;9.442;2022-10-31T02:30:24;11.90;;;4.82;;
11486;SDS011;10510;47.942;9.442;2022-10-31T02:35:03;9.60;;;5.80;;
11486;SDS011;10510;47.942;9.442;2022-10-31T02:37:25;11.50;;;5.90;;
11486;SDS011;10510;47.942;9.442;2022-10-31T02:39:44;10.80;;;5.65;;
11486;SDS011;10510;47.942;9.442;2022-10-31T02:44:07;10.10;;;6.28;;
11486;SDS011;10510;47.942;9.442;2022-10-31T02:46:18;12.40;;;6.18;;
11486;SDS011;10510;47.942;9.442;2022-10-31T02:48:28;12.75;;;6.03;;
11486;SDS011;10510;47.942;9.442;2022-10-31T02:50:32;14.75;;;7.05;;
11486;SDS011;10510;47.942;9.442;2022-10-31T02:52:34;12.20;;;5.88;;
11486;SDS011;10510;47.942;9.442;2022-10-31T02:54:35;8.65;;;5.28;;
11486;SDS011;10510;47.942;9.442;2022-10-31T02:56:35;10.02;;;5.68;;
11486;SDS011;10510;47.942;9.442;2022-10-31T02:58:37;17.00;;;6.60;;
11486;SDS011;10510;47.942;9.442;2022-10-31T03:00:59;13.57;;;6.20;;
11486;SDS011;10510;47.942;9.442;2022-10-31T03:05:41;13.02;;;5.60;;
11486;SDS011;10510;47.942;9.442;2022-10-31T03:12:39;18.33;;;6.95;;
11486;SDS011;10510;47.942;9.442;2022-10-31T03:14:48;22.55;;;8.10;;
11486;SDS011;10510;47.942;9.442;2022-10-31T03:16:56;27.90;;;9.18;;
11486;SDS011;10510;47.942;9.442;2022-10-31T03:21:14;31.73;;;7.83;;
11486;SDS011;10510;47.942;9.442;2022-10-31T03:23:20;22.40;;;6.93;;
11486;SDS011;10510;47.942;9.442;2022-10-31T03:25:22;15.63;;;7.75;;
11486;SDS011;10510;47.942;9.442;2022-10-31T03:27:24;30.92;;;9.02;;
11486;SDS011;10510;47.942;9.442;2022-10-31T03:29:27;29.17;;;10.98;;
11486;SDS011;10510;47.942;9.442;2022-10-31T03:31:32;47.83;;;9.90;;
11486;SDS011;10510;47.942;9.442;2022-10-31T03:33:36;57.38;;;10.82;;
11486;SDS011;10510;47.942;9.442;2022-10-31T03:35:39;36.97;;;9.93;;
11486;SDS011;10510;47.942;9.442;2022-10-31T03:37:44;46.03;;;10.30;;
11486;SDS011;10510;47.942;9.442;2022-10-31T03:39:47;46.15;;;11.30;;
11486;SDS011;10510;47.942;9.442;2022-10-31T03:41:56;41.03;;;8.93;;
11486;SDS011;10510;47.942;9.442;2022-10-31T03:44:03;25.95;;;8.05;;
11486;SDS011;10510;47.942;9.442;2022-10-31T03:46:08;36.53;;;7.95;;
11486;SDS011;10510;47.942;9.442;2022-10-31T03:48:09;28.75;;;7.30;;
11486;SDS011;10510;47.942;9.442;2022-10-31T03:50:10;26.42;;;6.63;;
11486;SDS011;10510;47.942;9.442;2022-10-31T03:52:19;23.42;;;7.40;;
11486;SDS011;10510;47.942;9.442;2022-10-31T03:54:25;19.00;;;6.40;;
11486;SDS011;10510;47.942;9.442;2022-10-31T03:57:16;19.52;;;6.85;;
11486;SDS011;10510;47.942;9.442;2022-10-31T03:59:07;17.58;;;7.05;;
11486;SDS011;10510;47.942;9.442;2022-10-31T04:01:15;16.35;;;6.85;;
11486;SDS011;10510;47.942;9.442;2022-10-31T04:03:22;31.27;;;7.88;;
11486;SDS011;10510;47.942;9.442;2022-10-31T04:05:27;16.17;;;8.32;;
11486;SDS011;10510;47.942;9.442;2022-10-31T04:07:32;22.55;;;7.60;;
11486;SDS011;10510;47.942;9.442;2022-10-31T04:09:37;18.83;;;8.77;;
11486;SDS011;10510;47.942;9.442;2022-10-31T04:11:42;18.92;;;8.02;;
11486;SDS011;10510;47.942;9.442;2022-10-31T04:13:49;19.48;;;6.63;;
11486;SDS011;10510;47.942;9.442;2022-10-31T04:15:50;16.50;;;7.28;;
11486;SDS011;10510;47.942;9.442;2022-10-31T04:17:55;15.80;;;6.90;;
11486;SDS011;10510;47.942;9.442;2022-10-31T04:20:01;15.80;;;7.28;;
11486;SDS011;10510;47.942;9.442;2022-10-31T04:22:02;16.02;;;7.32;;
11486;SDS011;10510;47.942;9.442;2022-10-31T04:24:02;14.95;;;7.43;;
11486;SDS011;10510;47.942;9.442;2022-10-31T04:26:03;18.88;;;8.40;;
11486;SDS011;10510;47.942;9.442;2022-10-31T04:28:03;16.45;;;7.68;;
11486;SDS011;10510;47.942;9.442;2022-10-31T04:30:04;16.45;;;7.00;;
11486;SDS011;10510;47.942;9.442;2022-10-31T04:32:04;16.50;;;7.65;;
11486;SDS011;10510;47.942;9.442;2022-10-31T04:34:05;12.55;;;6.75;;
11486;SDS011;10510;47.942;9.442;2022-10-31T04:36:05;11.07;;;6.30;;
11486;SDS011;10510;47.942;9.442;2022-10-31T04:38:05;17.67;;;7.80;;
11486;SDS011;10510;47.942;9.442;2022-10-31T04:40:06;16.30;;;7.93;;
11486;SDS011;10510;47.942;9.442;2022-10-31T04:42:07;17.05;;;8.82;;
11486;SDS011;10510;47.942;9.442;2022-10-31T04:44:07;15.98;;;6.82;;
11486;SDS011;10510;47.942;9.442;2022-10-31T04:46:07;12.93;;;6.90;;
11486;SDS011;10510;47.942;9.442;2022-10-31T04:48:07;14.23;;;7.90;;
11486;SDS011;10510;47.942;9.442;2022-10-31T04:50:08;15.63;;;7.72;;
11486;SDS011;10510;47.942;9.442;2022-10-31T04:52:08;20.42;;;9.38;;
11486;SDS011;10510;47.942;9.442;2022-10-31T04:54:08;16.60;;;8.02;;
11486;SDS011;10510;47.942;9.442;2022-10-31T04:56:09;14.95;;;7.20;;
11486;SDS011;10510;47.942;9.442;2022-10-31T04:58:09;18.23;;;7.82;;
11486;SDS011;10510;47.942;9.442;2022-10-31T05:00:10;18.73;;;8.20;;
11486;SDS011;10510;47.942;9.442;2022-10-31T05:02:12;22.02;;;11.13;;
11486;SDS011;10510;47.942;9.442;2022-10-31T05:04:12;21.17;;;9.90;;
11486;SDS011;10510;47.942;9.442;2022-10-31T05:06:12;9.77;;;6.25;;
11486;SDS011;10510;47.942;9.442;2022-10-31T05:08:13;17.65;;;7.28;;
11486;SDS011;10510;47.942;9.442;2022-10-31T05:10:15;18.98;;;7.95;;
11486;SDS011;10510;47.942;9.442;2022-10-31T05:12:18;22.67;;;7.57;;
11486;SDS011;10510;47.942;9.442;2022-10-31T05:14:18;42.10;;;9.85;;
11486;SDS011;10510;47.942;9.442;2022-10-31T05:16:18;31.75;;;8.48;;
11486;SDS011;10510;47.942;9.442;2022-10-31T05:18:19;45.83;;;9.07;;
11486;SDS011;10510;47.942;9.442;2022-10-31T05:20:20;36.05;;;8.55;;
11486;SDS011;10510;47.942;9.442;2022-10-31T05:22:22;25.63;;;6.90;;
11486;SDS011;10510;47.942;9.442;2022-10-31T05:24:22;25.00;;;6.32;;
11486;SDS011;10510;47.942;9.442;2022-10-31T05:26:23;28.90;;;6.53;;
11486;SDS011;10510;47.942;9.442;2022-10-31T05:28:23;47.60;;;17.58;;
11486;SDS011;10510;47.942;9.442;2022-10-31T05:30:33;18.67;;;7.38;;
11486;SDS011;10510;47.942;9.442;2022-10-31T05:32:37;17.02;;;6.55;;
11486;SDS011;10510;47.942;9.442;2022-10-31T05:36:42;36.00;;;9.47;;
11486;SDS011;10510;47.942;9.442;2022-10-31T05:38:42;18.45;;;7.05;;
11486;SDS011;10510;47.942;9.442;2022-10-31T05:40:43;22.63;;;6.88;;
11486;SDS011;10510;47.942;9.442;2022-10-31T05:42:43;24.73;;;6.78;;
11486;SDS011;10510;47.942;9.442;2022-10-31T05:44:44;19.33;;;6.03;;
11486;SDS011;10510;47.942;9.442;2022-10-31T05:46:45;38.22;;;7.47;;
11486;SDS011;10510;47.942;9.442;2022-10-31T05:48:46;19.52;;;7.00;;
11486;SDS011;10510;47.942;9.442;2022-10-31T05:50:47;17.90;;;7.22;;
11486;SDS011;10510;47.942;9.442;2022-10-31T05:52:55;23.52;;;6.88;;
11486;SDS011;10510;47.942;9.442;2022-10-31T05:54:56;25.45;;;7.75;;
11486;SDS011;10510;47.942;9.442;2022-10-31T05:56:56;23.70;;;7.18;;
11486;SDS011;10510;47.942;9.442;2022-10-31T05:58:56;17.52;;;7.43;;
11486;SDS011;10510;47.942;9.442;2022-10-31T06:00:57;25.58;;;8.60;;
11486;SDS011;10510;47.942;9.442;2022-10-31T06:03:15;18.95;;;7.32;;
11486;SDS011;10510;47.942;9.442;2022-10-31T06:05:15;24.30;;;7.53;;
11486;SDS011;10510;47.942;9.442;2022-10-31T06:07:16;27.48;;;8.40;;
11486;SDS011;10510;47.942;9.442;2022-10-31T06:09:16;21.25;;;7.82;;
11486;SDS011;10510;47.942;9.442;2022-10-31T06:11:17;20.55;;;7.70;;
11486;SDS011;10510;47.942;9.442;2022-10-31T06:13:17;18.27;;;7.60;;
11486;SDS011;10510;47.942;9.442;2022-10-31T06:15:17;22.17;;;7.82;;
11486;SDS011;10510;47.942;9.442;2022-10-31T06:17:18;14.10;;;7.28;;
11486;SDS011;10510;47.942;9.442;2022-10-31T06:19:18;13.15;;;7.28;;
11486;SDS011;10510;47.942;9.442;2022-10-31T06:21:18;15.32;;;7.43;;
11486;SDS011;10510;47.942;9.442;2022-10-31T06:23:18;15.57;;;6.93;;
11486;SDS011;10510;47.942;9.442;2022-10-31T06:25:19;16.98;;;7.13;;
11486;SDS011;10510;47.942;9.442;2022-10-31T06:27:19;22.55;;;6.10;;
11486;SDS011;10510;47.942;9.442;2022-10-31T06:29:19;17.45;;;6.35;;
11486;SDS011;10510;47.942;9.442;2022-10-31T06:31:20;14.77;;;6.13;;
11486;SDS011;10510;47.942;9.442;2022-10-31T06:33:20;18.20;;;5.93;;
11486;SDS011;10510;47.942;9.442;2022-10-31T06:35:20;18.25;;;8.98;;
11486;SDS011;10510;47.942;9.442;2022-10-31T06:37:21;16.83;;;7.00;;
11486;SDS011;10510;47.942;9.442;2022-10-31T06:39:21;22.50;;;7.47;;
11486;SDS011;10510;47.942;9.442;2022-10-31T06:41:21;23.33;;;7.80;;
11486;SDS011;10510;47.942;9.442;2022-10-31T06:43:22;16.88;;;7.43;;
11486;SDS011;10510;47.942;9.442;2022-10-31T06:45:22;15.43;;;7.15;;
11486;SDS011;10510;47.942;9.442;2022-10-31T06:47:23;10.70;;;6.82;;
11486;SDS011;10510;47.942;9.442;2022-10-31T06:49:23;12.30;;;6.55;;
11486;SDS011;10510;47.942;9.442;2022-10-31T06:51:23;18.77;;;7.18;;
11486;SDS011;10510;47.942;9.442;2022-10-31T06:53:24;13.70;;;7.05;;
11486;SDS011;10510;47.942;9.442;2022-10-31T06:55:25;13.35;;;7.03;;
11486;SDS011;10510;47.942;9.442;2022-10-31T06:57:26;15.63;;;7.47;;
11486;SDS011;10510;47.942;9.442;2022-10-31T06:59:26;10.68;;;6.70;;
11486;SDS011;10510;47.942;9.442;2022-10-31T07:01:26;11.68;;;7.28;;
11486;SDS011;10510;47.942;9.442;2022-10-31T07:03:27;11.65;;;6.40;;
11486;SDS011;10510;47.942;9.442;2022-10-31T07:05:28;14.05;;;8.23;;
11486;SDS011;10510;47.942;9.442;2022-10-31T07:07:29;12.85;;;7.53;;
11486;SDS011;10510;47.942;9.442;2022-10-31T07:09:29;12.30;;;7.53;;
11486;SDS011;10510;47.942;9.442;2022-10-31T07:11:29;14.55;;;9.10;;
11486;SDS011;10510;47.942;9.442;2022-10-31T07:13:30;16.55;;;10.02;;
11486;SDS011;10510;47.942;9.442;2022-10-31T07:15:33;20.58;;;9.52;;
11486;SDS011;10510;47.942;9.442;2022-10-31T07:17:34;25.58;;;9.88;;
11486;SDS011;10510;47.942;9.442;2022-10-31T07:19:35;19.35;;;9.00;;
11486;SDS011;10510;47.942;9.442;2022-10-31T07:21:35;19.00;;;9.18;;
11486;SDS011;10510;47.942;9.442;2022-10-31T07:23:35;17.45;;;10.75;;
11486;SDS011;10510;47.942;9.442;2022-10-31T07:25:36;21.13;;;9.68;;
11486;SDS011;10510;47.942;9.442;2022-10-31T07:27:41;20.15;;;11.77;;
11486;SDS011;10510;47.942;9.442;2022-10-31T07:29:42;18.10;;;10.05;;
11486;SDS011;10510;47.942;9.442;2022-10-31T07:31:42;21.92;;;10.38;;
11486;SDS011;10510;47.942;9.442;2022-10-31T07:33:45;17.50;;;10.02;;
11486;SDS011;10510;47.942;9.442;2022-10-31T07:35:45;15.32;;;8.10;;
11486;SDS011;10510;47.942;9.442;2022-10-31T07:37:46;18.73;;;8.23;;
11486;SDS011;10510;47.942;9.442;2022-10-31T07:39:46;15.32;;;8.45;;
11486;SDS011;10510;47.942;9.442;2022-10-31T07:41:46;18.10;;;7.93;;
11486;SDS011;10510;47.942;9.442;2022-10-31T07:43:47;19.88;;;10.02;;
11486;SDS011;10510;47.942;9.442;2022-10-31T07:45:51;15.57;;;8.68;;
11486;SDS011;10510;47.942;9.442;2022-10-31T07:47:52;14.10;;;8.93;;
11486;SDS011;10510;47.942;9.442;2022-10-31T07:49:52;13.15;;;8.70;;
11486;SDS011;10510;47.942;9.442;2022-10-31T07:51:53;12.57;;;8.40;;
11486;SDS011;10510;47.942;9.442;2022-10-31T07:53:54;14.43;;;8.52;;
11486;SDS011;10510;47.942;9.442;2022-10-31T07:55:54;13.70;;;8.05;;
11486;SDS011;10510;47.942;9.442;2022-10-31T07:58:05;11.65;;;8.07;;
11486;SDS011;10510;47.942;9.442;2022-10-31T08:00:09;14.00;;;8.00;;
11486;SDS011;10510;47.942;9.442;2022-10-31T08:02:10;14.52;;;8.90;;
11486;SDS011;10510;47.942;9.442;2022-10-31T08:04:10;13.52;;;8.85;;
11486;SDS011;10510;47.942;9.442;2022-10-31T08:06:10;12.82;;;8.00;;
11486;SDS011;10510;47.942;9.442;2022-10-31T08:08:11;12.13;;;7.57;;
11486;SDS011;10510;47.942;9.442;2022-10-31T08:10:12;14.10;;;7.53;;
11486;SDS011;10510;47.942;9.442;2022-10-31T08:12:12;12.07;;;8.50;;
11486;SDS011;10510;47.942;9.442;2022-10-31T08:14:13;17.08;;;10.25;;
11486;SDS011;10510;47.942;9.442;2022-10-31T08:16:13;16.52;;;10.63;;
11486;SDS011;10510;47.942;9.442;2022-10-31T08:18:14;12.10;;;7.10;;
11486;SDS011;10510;47.942;9.442;2022-10-31T08:20:14;15.35;;;8.55;;
11486;SDS011;10510;47.942;9.442;2022-10-31T08:22:15;11.30;;;7.55;;
11486;SDS011;10510;47.942;9.442;2022-10-31T08:24:15;12.02;;;7.85;;
11486;SDS011;10510;47.942;9.442;2022-10-31T08:26:15;11.43;;;7.00;;
11486;SDS011;10510;47.942;9.442;2022-10-31T08:28:15;10.35;;;7.32;;
11486;SDS011;10510;47.942;9.442;2022-10-31T08:30:16;9.48;;;6.75;;
11486;SDS011;10510;47.942;9.442;2022-10-31T08:32:16;10.45;;;6.72;;
11486;SDS011;10510;47.942;9.442;2022-10-31T08:34:16;27.45;;;7.93;;
11486;SDS011;10510;47.942;9.442;2022-10-31T08:36:17;10.95;;;6.15;;
11486;SDS011;10510;47.942;9.442;2022-10-31T08:38:17;10.35;;;6.20;;
11486;SDS011;10510;47.942;9.442;2022-10-31T08:40:17;13.93;;;6.40;;
11486;SDS011;10510;47.942;9.442;2022-10-31T08:42:17;10.07;;;6.05;;
11486;SDS011;10510;47.942;9.442;2022-10-31T08:44:18;14.35;;;8.88;;
11486;SDS011;10510;47.942;9.442;2022-10-31T08:46:18;10.68;;;6.78;;
11486;SDS011;10510;47.942;9.442;2022-10-31T08:48:18;8.98;;;6.57;;
11486;SDS011;10510;47.942;9.442;2022-10-31T08:50:18;8.93;;;7.00;;
11486;SDS011;10510;47.942;9.442;2022-10-31T08:52:22;10.52;;;6.85;;
11486;SDS011;10510;47.942;9.442;2022-10-31T08:54:23;13.95;;;6.15;;
11486;SDS011;10510;47.942;9.442;2022-10-31T08:56:23;12.98;;;7.38;;
11486;SDS011;10510;47.942;9.442;2022-10-31T08:58:23;7.32;;;5.93;;
11486;SDS011;10510;47.942;9.442;2022-10-31T09:00:24;9.95;;;6.47;;
11486;SDS011;10510;47.942;9.442;2022-10-31T09:02:25;9.05;;;6.72;;
11486;SDS011;10510;47.942;9.442;2022-10-31T09:04:25;8.30;;;6.00;;
11486;SDS011;10510;47.942;9.442;2022-10-31T09:06:25;9.25;;;6.80;;
11486;SDS011;10510;47.942;9.442;2022-10-31T09:08:26;8.32;;;6.95;;
11486;SDS011;10510;47.942;9.442;2022-10-31T09:10:27;8.18;;;6.70;;
11486;SDS011;10510;47.942;9.442;2022-10-31T09:12:28;10.77;;;7.35;;
11486;SDS011;10510;47.942;9.442;2022-10-31T09:14:28;8.52;;;6.80;;
11486;SDS011;10510;47.942;9.442;2022-10-31T09:16:28;12.57;;;6.95;;
11486;SDS011;10510;47.942;9.442;2022-10-31T09:18:29;10.43;;;6.75;;
11486;SDS011;10510;47.942;9.442;2022-10-31T09:20:29;8.13;;;6.15;;
11486;SDS011;10510;47.942;9.442;2022-10-31T09:22:31;8.85;;;6.97;;
11486;SDS011;10510;47.942;9.442;2022-10-31T09:24:32;9.52;;;7.07;;
11486;SDS011;10510;47.942;9.442;2022-10-31T09:26:33;8.55;;;6.75;;
11486;SDS011;10510;47.942;9.442;2022-10-31T09:28:33;9.50;;;6.78;;
11486;SDS011;10510;47.942;9.442;2022-10-31T09:30:35;9.48;;;6.68;;
11486;SDS011;10510;47.942;9.442;2022-10-31T09:32:35;13.77;;;7.43;;
11486;SDS011;10510;47.942;9.442;2022-10-31T09:34:36;16.27;;;6.95;;
11486;SDS011;10510;47.942;9.442;2022-10-31T09:36:37;10.60;;;5.97;;
11486;SDS011;10510;47.942;9.442;2022-10-31T09:38:38;12.65;;;6.18;;
11486;SDS011;10510;47.942;9.442;2022-10-31T09:40:39;8.77;;;5.95;;
11486;SDS011;10510;47.942;9.442;2022-10-31T09:42:44;10.60;;;6.13;;
11486;SDS011;10510;47.942;9.442;2022-10-31T09:45:00;9.13;;;6.22;;
11486;SDS011;10510;47.942;9.442;2022-10-31T09:47:25;9.85;;;5.72;;
11486;SDS011;10510;47.942;9.442;2022-10-31T09:51:40;15.63;;;12.23;;
11486;SDS011;10510;47.942;9.442;2022-10-31T09:53:53;9.38;;;6.32;;
11486;SDS011;10510;47.942;9.442;2022-10-31T09:56:16;9.77;;;6.20;;
11486;SDS011;10510;47.942;9.442;2022-10-31T09:58:25;12.88;;;6.47;;
11486;SDS011;10510;47.942;9.442;2022-10-31T10:00:28;9.00;;;6.35;;
11486;SDS011;10510;47.942;9.442;2022-10-31T10:02:30;7.60;;;5.53;;
11486;SDS011;10510;47.942;9.442;2022-10-31T10:07:28;10.20;;;6.15;;
11486;SDS011;10510;47.942;9.442;2022-10-31T10:09:43;9.55;;;5.57;;
11486;SDS011;10510;47.942;9.442;2022-10-31T10:11:51;9.88;;;5.78;;
11486;SDS011;10510;47.942;9.442;2022-10-31T10:16:36;10.85;;;6.28;;
11486;SDS011;10510;47.942;9.442;2022-10-31T10:21:01;9.68;;;5.65;;
11486;SDS011;10510;47.942;9.442;2022-10-31T10:30:16;8.57;;;5.03;;
11486;SDS011;10510;47.942;9.442;2022-10-31T10:32:25;9.13;;;5.68;;
11486;SDS011;10510;47.942;9.442;2022-10-31T10:34:30;9.82;;;4.53;;
11486;SDS011;10510;47.942;9.442;2022-10-31T10:36:40;15.32;;;6.85;;
11486;SDS011;10510;47.942;9.442;2022-10-31T10:40:49;14.30;;;5.77;;
11486;SDS011;10510;47.942;9.442;2022-10-31T10:42:59;11.20;;;6.35;;
11486;SDS011;10510;47.942;9.442;2022-10-31T10:45:23;10.43;;;6.80;;
11486;SDS011;10510;47.942;9.442;2022-10-31T10:47:44;12.85;;;6.35;;
11486;SDS011;10510;47.942;9.442;2022-10-31T10:49:51;16.17;;;6.88;;
11486;SDS011;10510;47.942;9.442;2022-10-31T10:51:56;15.93;;;6.80;;
11486;SDS011;10510;47.942;9.442;2022-10-31T10:54:38;13.65;;;6.63;;
11486;SDS011;10510;47.942;9.442;2022-10-31T10:58:48;11.13;;;6.90;;
11486;SDS011;10510;47.942;9.442;2022-10-31T11:00:49;15.45;;;7.25;;
11486;SDS011;10510;47.942;9.442;2022-10-31T11:02:53;12.48;;;6.72;;
11486;SDS011;10510;47.942;9.442;2022-10-31T11:04:54;10.52;;;5.60;;
11486;SDS011;10510;47.942;9.442;2022-10-31T11:06:58;12.77;;;6.07;;
11486;SDS011;10510;47.942;9.442;2022-10-31T11:09:09;15.43;;;6.72;;
11486;SDS011;10510;47.942;9.442;2022-10-31T11:13:27;12.38;;;5.57;;
11486;SDS011;10510;47.942;9.442;2022-10-31T11:15:31;18.58;;;6.60;;
11486;SDS011;10510;47.942;9.442;2022-10-31T11:17:50;9.05;;;5.40;;
11486;SDS011;10510;47.942;9.442;2022-10-31T11:19:59;10.68;;;5.78;;
11486;SDS011;10510;47.942;9.442;2022-10-31T11:22:06;14.80;;;5.78;;
11486;SDS011;10510;47.942;9.442;2022-10-31T11:26:15;9.97;;;4.93;;
11486;SDS011;10510;47.942;9.442;2022-10-31T11:28:20;9.70;;;4.50;;
11486;SDS011;10510;47.942;9.442;2022-10-31T11:30:20;17.10;;;4.28;;
11486;SDS011;10510;47.942;9.442;2022-10-31T11:32:21;19.27;;;9.93;;
11486;SDS011;10510;47.942;9.442;2022-10-31T11:34:37;11.05;;;4.45;;
11486;SDS011;10510;47.942;9.442;2022-10-31T11:36:45;6.68;;;3.13;;
11486;SDS011;10510;47.942;9.442;2022-10-31T11:38:45;12.50;;;3.50;;
11486;SDS011;10510;47.942;9.442;2022-10-31T11:40:53;9.25;;;3.83;;
11486;SDS011;10510;47.942;9.442;2022-10-31T11:42:56;10.70;;;3.80;;
11486;SDS011;10510;47.942;9.442;2022-10-31T11:44:59;8.60;;;3.70;;
11486;SDS011;10510;47.942;9.442;2022-10-31T11:47:05;12.68;;;3.97;;
11486;SDS011;10510;47.942;9.442;2022-10-31T11:51:32;10.68;;;4.05;;
11486;SDS011;10510;47.942;9.442;2022-10-31T11:53:34;8.55;;;3.75;;
11486;SDS011;10510;47.942;9.442;2022-10-31T11:55:38;10.18;;;4.13;;
11486;SDS011;10510;47.942;9.442;2022-10-31T11:57:46;11.32;;;4.25;;
11486;SDS011;10510;47.942;9.442;2022-10-31T11:59:51;13.73;;;4.03;;
11486;SDS011;10510;47.942;9.442;2022-10-31T12:02:14;10.63;;;4.32;;
11486;SDS011;10510;47.942;9.442;2022-10-31T12:04:18;12.25;;;3.97;;
11486;SDS011;10510;47.942;9.442;2022-10-31T12:06:37;10.00;;;3.80;;
11486;SDS011;10510;47.942;9.442;2022-10-31T12:08:40;10.43;;;5.18;;
11486;SDS011;10510;47.942;9.442;2022-10-31T12:10:55;11.90;;;4.63;;
11486;SDS011;10510;47.942;9.442;2022-10-31T12:15:34;10.27;;;4.60;;
11486;SDS011;10510;47.942;9.442;2022-10-31T12:27:00;7.20;;;4.63;;
11486;SDS011;10510;47.942;9.442;2022-10-31T12:31:42;15.35;;;6.97;;
11486;SDS011;10510;47.942;9.442;2022-10-31T12:33:57;13.45;;;6.90;;
11486;SDS011;10510;47.942;9.442;2022-10-31T12:45:54;11.57;;;6.70;;
11486;SDS011;10510;47.942;9.442;2022-10-31T12:50:16;15.57;;;7.30;;
11486;SDS011;10510;47.942;9.442;2022-10-31T12:55:03;13.32;;;6.75;;
11486;SDS011;10510;47.942;9.442;2022-10-31T12:57:21;17.65;;;7.22;;
11486;SDS011;10510;47.942;9.442;2022-10-31T12:59:31;13.02;;;5.88;;
11486;SDS011;10510;47.942;9.442;2022-10-31T13:01:46;15.45;;;6.10;;
11486;SDS011;10510;47.942;9.442;2022-10-31T13:06:16;13.75;;;5.68;;
11486;SDS011;10510;47.942;9.442;2022-10-31T13:08:57;16.60;;;7.32;;
11486;SDS011;10510;47.942;9.442;2022-10-31T13:11:08;15.75;;;6.75;;
11486;SDS011;10510;47.942;9.442;2022-10-31T13:13:23;16.02;;;7.22;;
11486;SDS011;10510;47.942;9.442;2022-10-31T13:15:27;12.80;;;7.13;;
11486;SDS011;10510;47.942;9.442;2022-10-31T13:17:34;10.52;;;6.53;;
11486;SDS011;10510;47.942;9.442;2022-10-31T13:19:42;14.25;;;5.95;;
11486;SDS011;10510;47.942;9.442;2022-10-31T13:24:08;13.48;;;6.75;;
11486;SDS011;10510;47.942;9.442;2022-10-31T13:26:14;16.13;;;7.40;;
11486;SDS011;10510;47.942;9.442;2022-10-31T13:28:27;14.20;;;5.75;;
11486;SDS011;10510;47.942;9.442;2022-10-31T13:30:37;13.95;;;5.32;;
11486;SDS011;10510;47.942;9.442;2022-10-31T13:32:41;11.57;;;5.70;;
11486;SDS011;10510;47.942;9.442;2022-10-31T13:41:43;12.27;;;5.13;;
11486;SDS011;10510;47.942;9.442;2022-10-31T13:46:34;11.15;;;4.65;;
11486;SDS011;10510;47.942;9.442;2022-10-31T13:48:39;13.48;;;5.53;;
11486;SDS011;10510;47.942;9.442;2022-10-31T13:50:42;15.00;;;5.53;;
11486;SDS011;10510;47.942;9.442;2022-10-31T13:53:11;8.15;;;4.70;;